sensor_id;sensor_type;location;lat;lon;timestamp;pressure;altitude;pressure_sealevel;temperature;humidity
74437;BME280;62868;52.360;30.424;2022-10-30T00:03:48;1020.8;;;15.3;63.7
74437;BME280;62868;52.360;30.424;2022-10-30T00:08:56;1020.9;;;15.3;63.7
74437;BME280;62868;52.360;30.424;2022-10-30T00:14:00;1020.8;;;15.2;63.6
74437;BME280;62868;52.360;30.424;2022-10-30T00:19:26;1020.7;;;15.2;63.6
74437;BME280;62868;52.360;30.424;2022-10-30T00:24:00;1020.7;;;15.2;63.7
74437;BME280;62868;52.360;30.424;2022-10-30T00:29:28;1020.7;;;15.1;63.7
74437;BME280;62868;52.360;30.424;2022-10-30T00:34:02;1020.8;;;15.1;63.7
74437;BME280;62868;52.360;30.424;2022-10-30T00:39:16;1020.9;;;15.1;63.7
74437;BME280;62868;52.360;30.424;2022-10-30T00:44:00;1021;;;15.1;63.6
74437;BME280;62868;52.360;30.424;2022-10-30T00:48:51;1021.1;;;15.1;63.6
74437;BME280;62868;52.360;30.424;2022-10-30T00:54:30;1021.2;;;15.1;63.6
74437;BME280;62868;52.360;30.424;2022-10-30T00:58:49;1021.3;;;15.1;63.6
74437;BME280;62868;52.360;30.424;2022-10-30T01:04:16;1021.3;;;15.1;63.6
74437;BME280;62868;52.360;30.424;2022-10-30T01:09:14;1021.4;;;15.1;63.6
74437;BME280;62868;52.360;30.424;2022-10-30T01:14:14;1021.4;;;15.1;63.6
74437;BME280;62868;52.360;30.424;2022-10-30T01:19:08;1021.4;;;15.1;63.6
74437;BME280;62868;52.360;30.424;2022-10-30T01:23:52;1021.4;;;15.1;63.6
74437;BME280;62868;52.360;30.424;2022-10-30T01:29:10;1021.4;;;15;63.6
74437;BME280;62868;52.360;30.424;2022-10-30T01:34:37;1021.4;;;14.9;63.4
74437;BME280;62868;52.360;30.424;2022-10-30T01:39:00;1021.4;;;14.8;63.3
74437;BME280;62868;52.360;30.424;2022-10-30T01:44:32;1021.4;;;14.8;63.2
74437;BME280;62868;52.360;30.424;2022-10-30T01:49:03;1021.5;;;14.7;63
74437;BME280;62868;52.360;30.424;2022-10-30T01:53:50;1021.6;;;14.7;62.8
74437;BME280;62868;52.360;30.424;2022-10-30T01:59:07;1021.7;;;14.7;62.6
74437;BME280;62868;52.360;30.424;2022-10-30T02:04:24;1021.7;;;14.6;62.5
74437;BME280;62868;52.360;30.424;2022-10-30T02:08:50;1021.7;;;14.6;62.3
74437;BME280;62868;52.360;30.424;2022-10-30T02:14:01;1021.7;;;14.6;62.2
74437;BME280;62868;52.360;30.424;2022-10-30T02:18:48;1021.7;;;14.6;62.2
74437;BME280;62868;52.360;30.424;2022-10-30T02:24:32;1021.7;;;14.6;62.1
74437;BME280;62868;52.360;30.424;2022-10-30T02:29:20;1021.7;;;14.6;62
74437;BME280;62868;52.360;30.424;2022-10-30T02:34:12;1021.7;;;14.6;62.1
74437;BME280;62868;52.360;30.424;2022-10-30T02:38:48;1021.9;;;14.6;62.1
74437;BME280;62868;52.360;30.424;2022-10-30T02:43:49;1021.9;;;14.7;62.1
74437;BME280;62868;52.360;30.424;2022-10-30T02:49:34;1021.9;;;14.7;62.1
74437;BME280;62868;52.360;30.424;2022-10-30T02:54:00;1021.8;;;14.6;62.1
74437;BME280;62868;52.360;30.424;2022-10-30T02:59:34;1021.9;;;14.6;62
74437;BME280;62868;52.360;30.424;2022-10-30T03:04:00;1021.9;;;14.5;61.8
74437;BME280;62868;52.360;30.424;2022-10-30T03:08:48;1021.9;;;14.5;61.7
74437;BME280;62868;52.360;30.424;2022-10-30T03:14:00;1021.9;;;14.5;61.6
74437;BME280;62868;52.360;30.424;2022-10-30T03:19:24;1022;;;14.4;61.6
74437;BME280;62868;52.360;30.424;2022-10-30T03:24:20;1022;;;14.5;61.6
74437;BME280;62868;52.360;30.424;2022-10-30T03:28:48;1022;;;14.5;61.5
74437;BME280;62868;52.360;30.424;2022-10-30T03:34:00;1022;;;14.4;61.5
74437;BME280;62868;52.360;30.424;2022-10-30T03:39:16;1022;;;14.4;61.4
74437;BME280;62868;52.360;30.424;2022-10-30T03:44:20;1022;;;14.3;61.3
74437;BME280;62868;52.360;30.424;2022-10-30T03:49:12;1022;;;14.3;61.2
74437;BME280;62868;52.360;30.424;2022-10-30T03:54:00;1022.1;;;14.3;61.2
74437;BME280;62868;52.360;30.424;2022-10-30T03:58:48;1022.1;;;14.3;61.2
74437;BME280;62868;52.360;30.424;2022-10-30T04:04:34;1022;;;14.3;61.1
74437;BME280;62868;52.360;30.424;2022-10-30T04:09:12;1022;;;14.3;61
74437;BME280;62868;52.360;30.424;2022-10-30T04:14:26;1022;;;14.3;61
74437;BME280;62868;52.360;30.424;2022-10-30T04:18:52;1022.1;;;14.2;60.9
74437;BME280;62868;52.360;30.424;2022-10-30T04:23:48;1022.2;;;14.2;60.7
74437;BME280;62868;52.360;30.424;2022-10-30T04:29:06;1022.2;;;14.1;60.6
74437;BME280;62868;52.360;30.424;2022-10-30T04:34:26;1022.2;;;14.2;60.5
74437;BME280;62868;52.360;30.424;2022-10-30T04:39:32;1022.2;;;14.1;60.4
74437;BME280;62868;52.360;30.424;2022-10-30T04:44:24;1022.2;;;14.1;60.2
74437;BME280;62868;52.360;30.424;2022-10-30T04:49:00;1022.2;;;14.1;60.1
74437;BME280;62868;52.360;30.424;2022-10-30T04:54:32;1022.3;;;14.1;60.1
74437;BME280;62868;52.360;30.424;2022-10-30T04:59:20;1022.3;;;14.1;60
74437;BME280;62868;52.360;30.424;2022-10-30T05:04:12;1022.3;;;14.2;60
74437;BME280;62868;52.360;30.424;2022-10-30T05:09:12;1022.3;;;14.2;59.9
74437;BME280;62868;52.360;30.424;2022-10-30T05:14:00;1022.3;;;14.1;59.9
74437;BME280;62868;52.360;30.424;2022-10-30T05:19:30;1022.3;;;14.2;59.8
74437;BME280;62868;52.360;30.424;2022-10-30T05:24:12;1022.3;;;14.2;59.7
74437;BME280;62868;52.360;30.424;2022-10-30T05:29:32;1022.3;;;14.2;59.6
74437;BME280;62868;52.360;30.424;2022-10-30T05:33:48;1022.3;;;14.2;59.5
74437;BME280;62868;52.360;30.424;2022-10-30T05:38:48;1022.3;;;14.3;59.4
74437;BME280;62868;52.360;30.424;2022-10-30T05:44:04;1022.3;;;14.3;59.3
74437;BME280;62868;52.360;30.424;2022-10-30T05:49:02;1022.3;;;14.4;59.2
74437;BME280;62868;52.360;30.424;2022-10-30T05:54:34;1022.3;;;14.4;59.1
74437;BME280;62868;52.360;30.424;2022-10-30T05:59:14;1022.3;;;14.6;58.9
74437;BME280;62868;52.360;30.424;2022-10-30T06:03:48;1022.3;;;14.7;58.7
74437;BME280;62868;52.360;30.424;2022-10-30T06:09:32;1022.4;;;14.8;58.5
74437;BME280;62868;52.360;30.424;2022-10-30T06:14:34;1022.4;;;14.9;58.3
74437;BME280;62868;52.360;30.424;2022-10-30T06:19:12;1022.5;;;15.1;58.1
74437;BME280;62868;52.360;30.424;2022-10-30T06:24:20;1022.5;;;15.3;57.8
74437;BME280;62868;52.360;30.424;2022-10-30T06:29:00;1022.5;;;15.3;57.7
74437;BME280;62868;52.360;30.424;2022-10-30T06:34:34;1022.4;;;15.4;57.6
74437;BME280;62868;52.360;30.424;2022-10-30T06:38:48;1022.4;;;15.4;57.4
74437;BME280;62868;52.360;30.424;2022-10-30T06:44:24;1022.4;;;15.5;57.2
74437;BME280;62868;52.360;30.424;2022-10-30T06:49:10;1022.4;;;15.6;57.1
74437;BME280;62868;52.360;30.424;2022-10-30T06:54:32;1022.4;;;15.7;57
74437;BME280;62868;52.360;30.424;2022-10-30T06:58:52;1022.4;;;15.8;56.9
74437;BME280;62868;52.360;30.424;2022-10-30T07:04:24;1022.4;;;15.9;56.7
74437;BME280;62868;52.360;30.424;2022-10-30T07:09:18;1022.4;;;16.1;56.7
74437;BME280;62868;52.360;30.424;2022-10-30T07:14:32;1022.4;;;16.2;56.6
74437;BME280;62868;52.360;30.424;2022-10-30T07:19:00;1022.4;;;16.3;56.6
74437;BME280;62868;52.360;30.424;2022-10-30T07:24:32;1022.5;;;16.4;56.5
74437;BME280;62868;52.360;30.424;2022-10-30T07:29:32;1022.5;;;16.4;56.6
74437;BME280;62868;52.360;30.424;2022-10-30T07:34:12;1022.5;;;16.2;56.9
74437;BME280;62868;52.360;30.424;2022-10-30T07:39:18;1022.4;;;16.4;56.6
74437;BME280;62868;52.360;30.424;2022-10-30T07:44:08;1022.4;;;16.7;56.3
74437;BME280;62868;52.360;30.424;2022-10-30T07:49:20;1022.4;;;16.9;56.2
74437;BME280;62868;52.360;30.424;2022-10-30T07:54:12;1022.4;;;17.3;55.7
74437;BME280;62868;52.360;30.424;2022-10-30T07:59:26;1022.4;;;17.5;55.5
74437;BME280;62868;52.360;30.424;2022-10-30T08:04:00;1022.3;;;17.9;55
74437;BME280;62868;52.360;30.424;2022-10-30T08:09:00;1022.4;;;18.5;54.3
74437;BME280;62868;52.360;30.424;2022-10-30T08:14:04;1022.3;;;18.8;54
74437;BME280;62868;52.360;30.424;2022-10-30T08:19:26;1022.3;;;18.7;54
74437;BME280;62868;52.360;30.424;2022-10-30T08:24:18;1022.3;;;18.6;54
74437;BME280;62868;52.360;30.424;2022-10-30T08:29:26;1022.4;;;18.3;54.2
74437;BME280;62868;52.360;30.424;2022-10-30T08:34:00;1022.4;;;18.1;54.3
74437;BME280;62868;52.360;30.424;2022-10-30T08:39:36;1022.4;;;17.9;54.3
74437;BME280;62868;52.360;30.424;2022-10-30T08:44:36;1022.4;;;17.8;54.3
74437;BME280;62868;52.360;30.424;2022-10-30T08:49:12;1022.4;;;17.7;54.2
74437;BME280;62868;52.360;30.424;2022-10-30T08:54:22;1022.4;;;17.6;54.1
74437;BME280;62868;52.360;30.424;2022-10-30T08:59:00;1022.4;;;17.6;54.1
74437;BME280;62868;52.360;30.424;2022-10-30T09:04:34;1022.4;;;17.7;53.9
74437;BME280;62868;52.360;30.424;2022-10-30T09:09:12;1022.3;;;17.6;53.9
74437;BME280;62868;52.360;30.424;2022-10-30T09:14:26;1022.4;;;17.4;54.1
74437;BME280;62868;52.360;30.424;2022-10-30T09:19:12;1022.3;;;17.4;54
74437;BME280;62868;52.360;30.424;2022-10-30T09:23:48;1022.3;;;17.7;53.6
74437;BME280;62868;52.360;30.424;2022-10-30T09:29:08;1022.4;;;17.8;53.5
74437;BME280;62868;52.360;30.424;2022-10-30T09:34:27;1022.4;;;17.7;53.5
74437;BME280;62868;52.360;30.424;2022-10-30T09:39:20;1022.4;;;17.8;53.3
74437;BME280;62868;52.360;30.424;2022-10-30T09:44:28;1022.3;;;18;53.2
74437;BME280;62868;52.360;30.424;2022-10-30T09:49:12;1022.2;;;18.6;52.3
74437;BME280;62868;52.360;30.424;2022-10-30T09:54:40;1022.2;;;18.6;52.3
74437;BME280;62868;52.360;30.424;2022-10-30T09:59:39;1022.2;;;18.4;52.4
74437;BME280;62868;52.360;30.424;2022-10-30T10:04:15;1022.1;;;18.3;52.4
74437;BME280;62868;52.360;30.424;2022-10-30T10:09:17;1022.1;;;18.4;52.1
74437;BME280;62868;52.360;30.424;2022-10-30T10:14:13;1022.1;;;18.4;52.1
74437;BME280;62868;52.360;30.424;2022-10-30T10:19:34;1022.1;;;18.4;51.9
74437;BME280;62868;52.360;30.424;2022-10-30T10:24:35;1022.1;;;18.3;51.8
74437;BME280;62868;52.360;30.424;2022-10-30T10:29:16;1022.1;;;18.1;52
74437;BME280;62868;52.360;30.424;2022-10-30T10:34:38;1022;;;18.1;51.8
74437;BME280;62868;52.360;30.424;2022-10-30T10:38:53;1022;;;18;51.7
74437;BME280;62868;52.360;30.424;2022-10-30T10:44:24;1022;;;18.1;51.4
74437;BME280;62868;52.360;30.424;2022-10-30T10:49:24;1022;;;18.1;51.4
74437;BME280;62868;52.360;30.424;2022-10-30T10:54:35;1022;;;17.8;51.7
74437;BME280;62868;52.360;30.424;2022-10-30T10:59:33;1021.9;;;17.7;51.7
74437;BME280;62868;52.360;30.424;2022-10-30T11:04:02;1021.8;;;17.9;51.5
74437;BME280;62868;52.360;30.424;2022-10-30T11:09:23;1021.7;;;18.2;51
74437;BME280;62868;52.360;30.424;2022-10-30T11:14:13;1021.7;;;18.4;50.8
74437;BME280;62868;52.360;30.424;2022-10-30T11:19:22;1021.7;;;18.2;50.8
74437;BME280;62868;52.360;30.424;2022-10-30T11:23:48;1021.7;;;17.9;51
74437;BME280;62868;52.360;30.424;2022-10-30T11:28:49;1021.8;;;18.2;50.5
74437;BME280;62868;52.360;30.424;2022-10-30T11:34:12;1021.8;;;18.5;49.9
74437;BME280;62868;52.360;30.424;2022-10-30T11:39:34;1021.8;;;18.5;49.9
74437;BME280;62868;52.360;30.424;2022-10-30T11:44:12;1021.9;;;18.4;50
74437;BME280;62868;52.360;30.424;2022-10-30T11:49:40;1021.9;;;18.4;49.9
74437;BME280;62868;52.360;30.424;2022-10-30T11:54:14;1021.9;;;18.3;50
74437;BME280;62868;52.360;30.424;2022-10-30T11:59:22;1021.8;;;18.1;50
74437;BME280;62868;52.360;30.424;2022-10-30T12:04:23;1021.6;;;18.1;49.7
74437;BME280;62868;52.360;30.424;2022-10-30T12:09:24;1021.6;;;18;49.6
74437;BME280;62868;52.360;30.424;2022-10-30T12:14:36;1021.4;;;17.9;49.6
74437;BME280;62868;52.360;30.424;2022-10-30T12:19:12;1021.4;;;17.8;49.5
74437;BME280;62868;52.360;30.424;2022-10-30T12:24:25;1021.3;;;17.8;49.4
74437;BME280;62868;52.360;30.424;2022-10-30T12:29:13;1021.1;;;17.8;49.4
74437;BME280;62868;52.360;30.424;2022-10-30T12:34:18;1021.2;;;17.8;49.3
74437;BME280;62868;52.360;30.424;2022-10-30T12:39:11;1021.3;;;17.8;49.3
74437;BME280;62868;52.360;30.424;2022-10-30T12:44:01;1021.3;;;17.8;49.3
74437;BME280;62868;52.360;30.424;2022-10-30T12:49:22;1021.2;;;17.8;49.3
74437;BME280;62868;52.360;30.424;2022-10-30T12:54:38;1021.3;;;17.7;49.4
74437;BME280;62868;52.360;30.424;2022-10-30T12:59:02;1021.3;;;17.6;49.6
74437;BME280;62868;52.360;30.424;2022-10-30T13:04:37;1021.3;;;17.4;49.7
74437;BME280;62868;52.360;30.424;2022-10-30T13:09:11;1021.2;;;17.3;49.7
74437;BME280;62868;52.360;30.424;2022-10-30T13:14:25;1021.2;;;17.2;49.8
74437;BME280;62868;52.360;30.424;2022-10-30T13:19:22;1021.2;;;17.1;49.9
74437;BME280;62868;52.360;30.424;2022-10-30T13:24:41;1021.2;;;17.1;50
74437;BME280;62868;52.360;30.424;2022-10-30T13:29:38;1021.2;;;17.1;50
74437;BME280;62868;52.360;30.424;2022-10-30T13:34:02;1021.3;;;17.1;50.1
74437;BME280;62868;52.360;30.424;2022-10-30T13:39:21;1021.3;;;16.9;50.2
74437;BME280;62868;52.360;30.424;2022-10-30T13:44:03;1021.3;;;16.8;50.3
74437;BME280;62868;52.360;30.424;2022-10-30T13:49:27;1021.3;;;16.6;50.4
74437;BME280;62868;52.360;30.424;2022-10-30T13:54:27;1021.3;;;16.4;50.4
74437;BME280;62868;52.360;30.424;2022-10-30T13:58:49;1021.1;;;16.2;50.6
74437;BME280;62868;52.360;30.424;2022-10-30T14:04:09;1021.1;;;16;50.7
74437;BME280;62868;52.360;30.424;2022-10-30T14:09:37;1021;;;15.9;50.8
74437;BME280;62868;52.360;30.424;2022-10-30T14:14:28;1021.1;;;15.7;50.9
74437;BME280;62868;52.360;30.424;2022-10-30T14:20:19;1021.2;;;15.6;51.1
74437;BME280;62868;52.360;30.424;2022-10-30T14:24:01;1021.1;;;15.4;51.1
74437;BME280;62868;52.360;30.424;2022-10-30T14:29:30;1021.1;;;15.3;51.2
74437;BME280;62868;52.360;30.424;2022-10-30T14:34:56;1021.1;;;15.3;51.2
74437;BME280;62868;52.360;30.424;2022-10-30T14:39:37;1021.1;;;15.2;51.3
74437;BME280;62868;52.360;30.424;2022-10-30T14:44:54;1021;;;15.1;51.5
74437;BME280;62868;52.360;30.424;2022-10-30T14:49:17;1021;;;15;51.6
74437;BME280;62868;52.360;30.424;2022-10-30T14:54:37;1020.9;;;14.8;51.9
74437;BME280;62868;52.360;30.424;2022-10-30T14:59:23;1020.9;;;14.7;52
74437;BME280;62868;52.360;30.424;2022-10-30T15:04:24;1021;;;14.6;52.1
74437;BME280;62868;52.360;30.424;2022-10-30T15:09:15;1021;;;14.5;52.4
74437;BME280;62868;52.360;30.424;2022-10-30T15:14:01;1021;;;14.5;52.4
74437;BME280;62868;52.360;30.424;2022-10-30T15:19:11;1021;;;14.3;52.7
74437;BME280;62868;52.360;30.424;2022-10-30T15:24:28;1021;;;14.3;52.8
74437;BME280;62868;52.360;30.424;2022-10-30T15:29:00;1021;;;14.2;53
74437;BME280;62868;52.360;30.424;2022-10-30T15:34:36;1021.1;;;14.1;53.2
74437;BME280;62868;52.360;30.424;2022-10-30T15:39:01;1021;;;14;53.4
74437;BME280;62868;52.360;30.424;2022-10-30T15:44:23;1021;;;14;53.6
74437;BME280;62868;52.360;30.424;2022-10-30T15:49:06;1021;;;13.9;53.7
74437;BME280;62868;52.360;30.424;2022-10-30T15:54:26;1021;;;13.9;53.8
74437;BME280;62868;52.360;30.424;2022-10-30T15:59:36;1021.1;;;13.8;54
74437;BME280;62868;52.360;30.424;2022-10-30T16:04:00;1021.1;;;13.8;54.2
74437;BME280;62868;52.360;30.424;2022-10-30T16:09:34;1021.1;;;13.7;54.3
74437;BME280;62868;52.360;30.424;2022-10-30T16:13:56;1021.1;;;13.7;54.5
74437;BME280;62868;52.360;30.424;2022-10-30T16:19:23;1021.1;;;13.6;54.7
74437;BME280;62868;52.360;30.424;2022-10-30T16:24:12;1021.1;;;13.6;54.8
74437;BME280;62868;52.360;30.424;2022-10-30T16:28:48;1021.1;;;13.5;55
74437;BME280;62868;52.360;30.424;2022-10-30T16:34:24;1021.1;;;13.5;55
74437;BME280;62868;52.360;30.424;2022-10-30T16:39:34;1021.1;;;13.5;55.2
74437;BME280;62868;52.360;30.424;2022-10-30T16:44:16;1021.1;;;13.4;55.4
74437;BME280;62868;52.360;30.424;2022-10-30T16:49:34;1021.1;;;13.4;55.6
74437;BME280;62868;52.360;30.424;2022-10-30T16:54:00;1021.1;;;13.4;55.7
74437;BME280;62868;52.360;30.424;2022-10-30T16:59:23;1021.1;;;13.3;55.9
74437;BME280;62868;52.360;30.424;2022-10-30T17:04:00;1021;;;13.3;56
74437;BME280;62868;52.360;30.424;2022-10-30T17:09:25;1021;;;13.3;56.1
74437;BME280;62868;52.360;30.424;2022-10-30T17:14:40;1021;;;13.2;56.3
74437;BME280;62868;52.360;30.424;2022-10-30T17:19:35;1021.1;;;13.2;56.3
74437;BME280;62868;52.360;30.424;2022-10-30T17:24:36;1021.1;;;13.2;56.5
74437;BME280;62868;52.360;30.424;2022-10-30T17:29:42;1021.1;;;13.2;56.7
74437;BME280;62868;52.360;30.424;2022-10-30T17:34:36;1021.1;;;13.2;56.8
74437;BME280;62868;52.360;30.424;2022-10-30T17:39:13;1021.1;;;13.2;57
74437;BME280;62868;52.360;30.424;2022-10-30T17:43:49;1021.1;;;13.1;57.1
74437;BME280;62868;52.360;30.424;2022-10-30T17:49:06;1021.1;;;13.1;57.1
74437;BME280;62868;52.360;30.424;2022-10-30T17:54:36;1021;;;13.1;57.2
74437;BME280;62868;52.360;30.424;2022-10-30T17:58:48;1021;;;13.1;57.4
74437;BME280;62868;52.360;30.424;2022-10-30T18:04:37;1020.9;;;13.1;57.5
74437;BME280;62868;52.360;30.424;2022-10-30T18:08:48;1021;;;13;57.6
74437;BME280;62868;52.360;30.424;2022-10-30T18:14:23;1021;;;13;57.7
74437;BME280;62868;52.360;30.424;2022-10-30T18:18:49;1021;;;12.9;57.9
74437;BME280;62868;52.360;30.424;2022-10-30T18:24:26;1021;;;12.9;58
74437;BME280;62868;52.360;30.424;2022-10-30T18:29:36;1020.9;;;12.9;58.1
74437;BME280;62868;52.360;30.424;2022-10-30T18:34:00;1020.9;;;12.9;58.2
74437;BME280;62868;52.360;30.424;2022-10-30T18:39:36;1020.9;;;12.9;58.2
74437;BME280;62868;52.360;30.424;2022-10-30T18:44:22;1020.8;;;12.9;58.2
74437;BME280;62868;52.360;30.424;2022-10-30T18:49:22;1020.8;;;12.9;58.3
74437;BME280;62868;52.360;30.424;2022-10-30T18:54:13;1020.7;;;13;58.3
74437;BME280;62868;52.360;30.424;2022-10-30T18:59:00;1020.7;;;13;58.4
74437;BME280;62868;52.360;30.424;2022-10-30T19:04:00;1020.7;;;13;58.5
74437;BME280;62868;52.360;30.424;2022-10-30T19:09:34;1020.6;;;13;58.6
74437;BME280;62868;52.360;30.424;2022-10-30T19:14:13;1020.6;;;12.9;58.7
74437;BME280;62868;52.360;30.424;2022-10-30T19:19:36;1020.6;;;12.9;58.8
74437;BME280;62868;52.360;30.424;2022-10-30T19:23:48;1020.6;;;12.9;58.8
74437;BME280;62868;52.360;30.424;2022-10-30T19:29:00;1020.6;;;12.9;59
74437;BME280;62868;52.360;30.424;2022-10-30T19:33:48;1020.4;;;12.8;59
74437;BME280;62868;52.360;30.424;2022-10-30T19:39:26;1020.5;;;12.8;59.1
74437;BME280;62868;52.360;30.424;2022-10-30T19:44:22;1020.6;;;12.8;59.3
74437;BME280;62868;52.360;30.424;2022-10-30T19:48:48;1020.5;;;12.8;59.3
74437;BME280;62868;52.360;30.424;2022-10-30T19:53:48;1020.5;;;12.8;59.4
74437;BME280;62868;52.360;30.424;2022-10-30T19:59:34;1020.5;;;12.8;59.4
74437;BME280;62868;52.360;30.424;2022-10-30T20:04:22;1020.5;;;12.8;59.4
74437;BME280;62868;52.360;30.424;2022-10-30T20:08:48;1020.5;;;12.8;59.5
74437;BME280;62868;52.360;30.424;2022-10-30T20:14:12;1020.6;;;12.8;59.4
74437;BME280;62868;52.360;30.424;2022-10-30T20:19:19;1020.6;;;12.8;59.5
74437;BME280;62868;52.360;30.424;2022-10-30T20:24:36;1020.6;;;12.8;59.5
74437;BME280;62868;52.360;30.424;2022-10-30T20:29:12;1020.6;;;12.8;59.6
74437;BME280;62868;52.360;30.424;2022-10-30T20:34:36;1020.6;;;12.7;59.6
74437;BME280;62868;52.360;30.424;2022-10-30T20:38:54;1020.6;;;12.7;59.6
74437;BME280;62868;52.360;30.424;2022-10-30T20:44:00;1020.6;;;12.7;59.7
74437;BME280;62868;52.360;30.424;2022-10-30T20:49:08;1020.5;;;12.7;59.8
74437;BME280;62868;52.360;30.424;2022-10-30T20:54:27;1020.4;;;12.6;59.9
74437;BME280;62868;52.360;30.424;2022-10-30T20:59:22;1020.4;;;12.6;59.9
74437;BME280;62868;52.360;30.424;2022-10-30T21:03:48;1020.4;;;12.6;59.9
74437;BME280;62868;52.360;30.424;2022-10-30T21:09:00;1020.4;;;12.7;59.9
74437;BME280;62868;52.360;30.424;2022-10-30T21:14:34;1020.5;;;12.7;59.8
74437;BME280;62868;52.360;30.424;2022-10-30T21:19:08;1020.4;;;12.8;59.7
74437;BME280;62868;52.360;30.424;2022-10-30T21:24:12;1020.4;;;12.8;59.7
74437;BME280;62868;52.360;30.424;2022-10-30T21:29:22;1020.5;;;12.9;59.7
74437;BME280;62868;52.360;30.424;2022-10-30T21:33:48;1020.6;;;12.9;59.6
74437;BME280;62868;52.360;30.424;2022-10-30T21:39:32;1020.6;;;12.9;59.6
74437;BME280;62868;52.360;30.424;2022-10-30T21:44:12;1020.7;;;12.9;59.6
74437;BME280;62868;52.360;30.424;2022-10-30T21:49:13;1020.8;;;12.9;59.6
74437;BME280;62868;52.360;30.424;2022-10-30T21:54:06;1020.9;;;12.7;59.6
74437;BME280;62868;52.360;30.424;2022-10-30T21:58:49;1021;;;12.6;59.2
74437;BME280;62868;52.360;30.424;2022-10-30T22:03:48;1021.1;;;12.4;58.6
74437;BME280;62868;52.360;30.424;2022-10-30T22:09:21;1021.2;;;12.1;58.1
74437;BME280;62868;52.360;30.424;2022-10-30T22:14:16;1021.2;;;11.9;57.7
74437;BME280;62868;52.360;30.424;2022-10-30T22:18:48;1021.3;;;11.7;57.3
74437;BME280;62868;52.360;30.424;2022-10-30T22:23:57;1021.4;;;11.5;57.1
74437;BME280;62868;52.360;30.424;2022-10-30T22:29:18;1021.4;;;11.3;57
74437;BME280;62868;52.360;30.424;2022-10-30T22:34:18;1021.5;;;11.1;56.8
74437;BME280;62868;52.360;30.424;2022-10-30T22:38:52;1021.6;;;10.9;56.8
74437;BME280;62868;52.360;30.424;2022-10-30T22:43:57;1021.7;;;10.8;56.8
74437;BME280;62868;52.360;30.424;2022-10-30T22:48:49;1021.7;;;10.6;56.8
74437;BME280;62868;52.360;30.424;2022-10-30T22:54:32;1021.8;;;10.5;56.7
74437;BME280;62868;52.360;30.424;2022-10-30T22:59:09;1021.8;;;10.3;56.7
74437;BME280;62868;52.360;30.424;2022-10-30T23:04:32;1021.9;;;10.2;56.7
74437;BME280;62868;52.360;30.424;2022-10-30T23:08:50;1021.9;;;10.1;56.7
74437;BME280;62868;52.360;30.424;2022-10-30T23:13:57;1022;;;10;56.7
74437;BME280;62868;52.360;30.424;2022-10-30T23:18:50;1022.1;;;9.9;56.8
74437;BME280;62868;52.360;30.424;2022-10-30T23:24:23;1022.1;;;9.8;56.8
74437;BME280;62868;52.360;30.424;2022-10-30T23:29:19;1022.1;;;9.7;56.8
74437;BME280;62868;52.360;30.424;2022-10-30T23:34:23;1022;;;9.6;56.9
74437;BME280;62868;52.360;30.424;2022-10-30T23:38:49;1022.1;;;9.5;57
74437;BME280;62868;52.360;30.424;2022-10-30T23:44:33;1022.1;;;9.5;57.1
74437;BME280;62868;52.360;30.424;2022-10-30T23:49:33;1022.2;;;9.4;57.1
74437;BME280;62868;52.360;30.424;2022-10-30T23:54:09;1022.3;;;9.3;57.2
74437;BME280;62868;52.360;30.424;2022-10-30T23:59:19;1022.3;;;9.2;57.2
